sensor_id;sensor_type;location;lat;lon;timestamp;pressure;altitude;pressure_sealevel;temperature;humidity
68169;BME280;54981;50.206;15.978;2023-08-01T00:00:36;97923.75;;;17.86;100.00
68169;BME280;54981;50.206;15.978;2023-08-01T00:03:06;97917.34;;;17.87;100.00
68169;BME280;54981;50.206;15.978;2023-08-01T00:05:37;97914.72;;;17.77;100.00
68169;BME280;54981;50.206;15.978;2023-08-01T00:08:08;97914.16;;;17.83;100.00
68169;BME280;54981;50.206;15.978;2023-08-01T00:10:40;97910.44;;;17.84;100.00
68169;BME280;54981;50.206;15.978;2023-08-01T00:13:11;97906.59;;;17.87;100.00
68169;BME280;54981;50.206;15.978;2023-08-01T00:15:41;97899.06;;;17.91;100.00
68169;BME280;54981;50.206;15.978;2023-08-01T00:18:12;97905.59;;;17.88;100.00
68169;BME280;54981;50.206;15.978;2023-08-01T00:20:42;97903.59;;;17.90;100.00
68169;BME280;54981;50.206;15.978;2023-08-01T00:23:12;97899.16;;;17.81;100.00
68169;BME280;54981;50.206;15.978;2023-08-01T00:25:43;97888.91;;;17.84;100.00
68169;BME280;54981;50.206;15.978;2023-08-01T00:28:13;97892.34;;;17.77;100.00
68169;BME280;54981;50.206;15.978;2023-08-01T00:30:44;97898.13;;;17.82;100.00
68169;BME280;54981;50.206;15.978;2023-08-01T00:33:14;97897.16;;;17.83;100.00
68169;BME280;54981;50.206;15.978;2023-08-01T00:35:53;97894.97;;;17.86;100.00
68169;BME280;54981;50.206;15.978;2023-08-01T00:38:23;97891.44;;;17.86;100.00
68169;BME280;54981;50.206;15.978;2023-08-01T00:40:54;97880.66;;;17.86;100.00
68169;BME280;54981;50.206;15.978;2023-08-01T00:43:24;97880.81;;;17.84;100.00
68169;BME280;54981;50.206;15.978;2023-08-01T00:45:58;97872.28;;;17.89;100.00
68169;BME280;54981;50.206;15.978;2023-08-01T00:48:30;97869.94;;;17.94;100.00
68169;BME280;54981;50.206;15.978;2023-08-01T00:51:05;97870.81;;;17.95;100.00
68169;BME280;54981;50.206;15.978;2023-08-01T00:53:36;97869.09;;;17.94;100.00
68169;BME280;54981;50.206;15.978;2023-08-01T00:56:06;97866.13;;;17.97;100.00
68169;BME280;54981;50.206;15.978;2023-08-01T00:58:37;97860.22;;;18.01;100.00
68169;BME280;54981;50.206;15.978;2023-08-01T01:01:07;97857.25;;;18.04;100.00
68169;BME280;54981;50.206;15.978;2023-08-01T01:03:38;97856.19;;;17.97;100.00
68169;BME280;54981;50.206;15.978;2023-08-01T01:06:16;97859.88;;;17.96;100.00
68169;BME280;54981;50.206;15.978;2023-08-01T01:08:50;97857.03;;;17.98;100.00
68169;BME280;54981;50.206;15.978;2023-08-01T01:11:20;97842.44;;;18.08;100.00
68169;BME280;54981;50.206;15.978;2023-08-01T01:13:51;97844.75;;;18.29;100.00
68169;BME280;54981;50.206;15.978;2023-08-01T01:16:24;97841.25;;;18.37;100.00
68169;BME280;54981;50.206;15.978;2023-08-01T01:18:54;97842.78;;;18.40;100.00
68169;BME280;54981;50.206;15.978;2023-08-01T01:21:25;97845.34;;;18.49;100.00
68169;BME280;54981;50.206;15.978;2023-08-01T01:23:56;97840.81;;;18.50;100.00
68169;BME280;54981;50.206;15.978;2023-08-01T01:26:27;97843.91;;;18.63;100.00
68169;BME280;54981;50.206;15.978;2023-08-01T01:28:58;97837.19;;;18.67;100.00
68169;BME280;54981;50.206;15.978;2023-08-01T01:31:30;97844.84;;;18.80;100.00
68169;BME280;54981;50.206;15.978;2023-08-01T01:34:01;97839.78;;;18.85;100.00
68169;BME280;54981;50.206;15.978;2023-08-01T01:36:33;97839.84;;;18.93;100.00
68169;BME280;54981;50.206;15.978;2023-08-01T01:39:04;97837.09;;;18.77;100.00
68169;BME280;54981;50.206;15.978;2023-08-01T01:41:34;97839.91;;;18.76;100.00
68169;BME280;54981;50.206;15.978;2023-08-01T01:44:05;97841.75;;;18.67;100.00
68169;BME280;54981;50.206;15.978;2023-08-01T01:46:35;97842.56;;;18.59;100.00
68169;BME280;54981;50.206;15.978;2023-08-01T01:49:06;97841.53;;;18.60;100.00
68169;BME280;54981;50.206;15.978;2023-08-01T01:51:36;97855.28;;;18.41;100.00
68169;BME280;54981;50.206;15.978;2023-08-01T01:54:06;97866.16;;;18.31;100.00
68169;BME280;54981;50.206;15.978;2023-08-01T01:56:37;97865.03;;;18.16;100.00
68169;BME280;54981;50.206;15.978;2023-08-01T01:59:07;97866.75;;;18.17;100.00
68169;BME280;54981;50.206;15.978;2023-08-01T02:01:37;97860.34;;;17.92;100.00
68169;BME280;54981;50.206;15.978;2023-08-01T02:04:08;97850.91;;;17.87;100.00
68169;BME280;54981;50.206;15.978;2023-08-01T02:06:38;97845.22;;;17.73;100.00
68169;BME280;54981;50.206;15.978;2023-08-01T02:09:08;97838.44;;;17.68;100.00
68169;BME280;54981;50.206;15.978;2023-08-01T02:11:39;97837.38;;;17.61;100.00
68169;BME280;54981;50.206;15.978;2023-08-01T02:14:09;97825.91;;;17.59;100.00
68169;BME280;54981;50.206;15.978;2023-08-01T02:16:40;97819.38;;;17.62;100.00
68169;BME280;54981;50.206;15.978;2023-08-01T02:19:10;97822.63;;;17.65;100.00
68169;BME280;54981;50.206;15.978;2023-08-01T02:21:40;97823.28;;;17.67;100.00
68169;BME280;54981;50.206;15.978;2023-08-01T02:24:11;97822.34;;;17.77;100.00
68169;BME280;54981;50.206;15.978;2023-08-01T02:26:41;97822.91;;;17.80;100.00
68169;BME280;54981;50.206;15.978;2023-08-01T02:29:12;97810.97;;;17.83;100.00
68169;BME280;54981;50.206;15.978;2023-08-01T02:31:42;97794.25;;;17.79;100.00
68169;BME280;54981;50.206;15.978;2023-08-01T02:34:12;97804.19;;;17.79;100.00
68169;BME280;54981;50.206;15.978;2023-08-01T02:36:43;97802.50;;;17.78;100.00
68169;BME280;54981;50.206;15.978;2023-08-01T02:39:13;97806.88;;;17.79;100.00
68169;BME280;54981;50.206;15.978;2023-08-01T02:41:44;97812.59;;;17.76;100.00
68169;BME280;54981;50.206;15.978;2023-08-01T02:44:14;97802.28;;;17.71;100.00
68169;BME280;54981;50.206;15.978;2023-08-01T02:46:44;97797.03;;;17.70;100.00
68169;BME280;54981;50.206;15.978;2023-08-01T02:49:15;97795.50;;;17.67;100.00
68169;BME280;54981;50.206;15.978;2023-08-01T02:51:45;97782.16;;;17.57;100.00
68169;BME280;54981;50.206;15.978;2023-08-01T02:54:15;97765.63;;;17.52;100.00
68169;BME280;54981;50.206;15.978;2023-08-01T02:56:46;97755.72;;;17.53;100.00
68169;BME280;54981;50.206;15.978;2023-08-01T02:59:16;97753.19;;;17.51;100.00
68169;BME280;54981;50.206;15.978;2023-08-01T03:01:48;97744.59;;;17.48;100.00
68169;BME280;54981;50.206;15.978;2023-08-01T03:04:18;97750.81;;;17.48;100.00
68169;BME280;54981;50.206;15.978;2023-08-01T03:06:49;97753.19;;;17.51;100.00
68169;BME280;54981;50.206;15.978;2023-08-01T03:09:19;97752.03;;;17.54;100.00
68169;BME280;54981;50.206;15.978;2023-08-01T03:11:49;97747.13;;;17.49;100.00
68169;BME280;54981;50.206;15.978;2023-08-01T03:14:20;97746.66;;;17.54;100.00
68169;BME280;54981;50.206;15.978;2023-08-01T03:16:50;97747.50;;;17.54;100.00
68169;BME280;54981;50.206;15.978;2023-08-01T03:19:20;97747.50;;;17.54;100.00
68169;BME280;54981;50.206;15.978;2023-08-01T03:21:51;97755.03;;;17.51;100.00
68169;BME280;54981;50.206;15.978;2023-08-01T03:24:21;97762.81;;;17.54;100.00
68169;BME280;54981;50.206;15.978;2023-08-01T03:26:51;97756.03;;;17.50;100.00
68169;BME280;54981;50.206;15.978;2023-08-01T03:29:22;97746.44;;;17.47;100.00
68169;BME280;54981;50.206;15.978;2023-08-01T03:31:52;97745.50;;;17.56;100.00
68169;BME280;54981;50.206;15.978;2023-08-01T03:34:23;97743.78;;;17.55;100.00
68169;BME280;54981;50.206;15.978;2023-08-01T03:36:53;97739.28;;;17.56;100.00
68169;BME280;54981;50.206;15.978;2023-08-01T03:39:23;97736.06;;;17.60;100.00
68169;BME280;54981;50.206;15.978;2023-08-01T03:41:54;97726.09;;;17.53;100.00
68169;BME280;54981;50.206;15.978;2023-08-01T03:44:24;97720.03;;;17.51;100.00
68169;BME280;54981;50.206;15.978;2023-08-01T03:46:54;97713.91;;;17.40;100.00
68169;BME280;54981;50.206;15.978;2023-08-01T03:49:25;97712.75;;;17.43;100.00
68169;BME280;54981;50.206;15.978;2023-08-01T03:51:55;97709.75;;;17.46;100.00
68169;BME280;54981;50.206;15.978;2023-08-01T03:54:26;97710.97;;;17.52;100.00
68169;BME280;54981;50.206;15.978;2023-08-01T03:56:56;97706.44;;;17.52;100.00
68169;BME280;54981;50.206;15.978;2023-08-01T03:59:26;97711.34;;;17.57;100.00
68169;BME280;54981;50.206;15.978;2023-08-01T04:01:57;97718.34;;;17.50;100.00
68169;BME280;54981;50.206;15.978;2023-08-01T04:04:27;97720.91;;;17.51;100.00
68169;BME280;54981;50.206;15.978;2023-08-01T04:06:58;97721.56;;;17.53;100.00
68169;BME280;54981;50.206;15.978;2023-08-01T04:09:28;97716.88;;;17.55;100.00
68169;BME280;54981;50.206;15.978;2023-08-01T04:11:59;97720.25;;;17.57;100.00
68169;BME280;54981;50.206;15.978;2023-08-01T04:14:29;97717.88;;;17.54;100.00
68169;BME280;54981;50.206;15.978;2023-08-01T04:17:00;97715.88;;;17.56;100.00
68169;BME280;54981;50.206;15.978;2023-08-01T04:19:30;97715.94;;;17.64;100.00
68169;BME280;54981;50.206;15.978;2023-08-01T04:22:00;97721.63;;;17.61;100.00
68169;BME280;54981;50.206;15.978;2023-08-01T04:24:31;97718.75;;;17.63;100.00
68169;BME280;54981;50.206;15.978;2023-08-01T04:27:01;97711.19;;;17.58;100.00
68169;BME280;54981;50.206;15.978;2023-08-01T04:29:32;97716.25;;;17.61;100.00
68169;BME280;54981;50.206;15.978;2023-08-01T04:32:02;97704.28;;;17.56;100.00
68169;BME280;54981;50.206;15.978;2023-08-01T04:34:32;97698.09;;;17.63;100.00
68169;BME280;54981;50.206;15.978;2023-08-01T04:37:03;97711.22;;;17.66;100.00
68169;BME280;54981;50.206;15.978;2023-08-01T04:39:33;97714.25;;;17.63;100.00
68169;BME280;54981;50.206;15.978;2023-08-01T04:42:04;97705.13;;;17.56;100.00
68169;BME280;54981;50.206;15.978;2023-08-01T04:44:35;97714.03;;;17.57;100.00
68169;BME280;54981;50.206;15.978;2023-08-01T04:47:05;97709.84;;;17.62;100.00
68169;BME280;54981;50.206;15.978;2023-08-01T04:49:36;97704.69;;;17.69;100.00
68169;BME280;54981;50.206;15.978;2023-08-01T04:52:06;97697.91;;;17.65;100.00
68169;BME280;54981;50.206;15.978;2023-08-01T04:54:37;97707.91;;;17.73;100.00
68169;BME280;54981;50.206;15.978;2023-08-01T04:57:07;97697.97;;;17.73;100.00
68169;BME280;54981;50.206;15.978;2023-08-01T04:59:37;97698.50;;;17.77;100.00
68169;BME280;54981;50.206;15.978;2023-08-01T05:02:08;97699.16;;;17.71;100.00
68169;BME280;54981;50.206;15.978;2023-08-01T05:04:38;97689.91;;;17.73;100.00
68169;BME280;54981;50.206;15.978;2023-08-01T05:07:08;97693.69;;;17.80;100.00
68169;BME280;54981;50.206;15.978;2023-08-01T05:09:39;97697.91;;;17.83;100.00
68169;BME280;54981;50.206;15.978;2023-08-01T05:12:09;97696.25;;;17.90;100.00
68169;BME280;54981;50.206;15.978;2023-08-01T05:14:40;97685.28;;;17.92;100.00
68169;BME280;54981;50.206;15.978;2023-08-01T05:17:10;97689.22;;;17.97;100.00
68169;BME280;54981;50.206;15.978;2023-08-01T05:19:40;97678.94;;;18.01;100.00
68169;BME280;54981;50.206;15.978;2023-08-01T05:22:11;97680.31;;;18.05;100.00
68169;BME280;54981;50.206;15.978;2023-08-01T05:24:41;97678.47;;;18.05;100.00
68169;BME280;54981;50.206;15.978;2023-08-01T05:27:12;97672.91;;;18.07;100.00
68169;BME280;54981;50.206;15.978;2023-08-01T05:29:42;97674.09;;;18.13;100.00
68169;BME280;54981;50.206;15.978;2023-08-01T05:32:12;97674.59;;;18.08;100.00
68169;BME280;54981;50.206;15.978;2023-08-01T05:34:43;97677.28;;;18.00;100.00
68169;BME280;54981;50.206;15.978;2023-08-01T05:37:13;97666.50;;;18.00;100.00
68169;BME280;54981;50.206;15.978;2023-08-01T05:39:43;97665.53;;;18.09;100.00
68169;BME280;54981;50.206;15.978;2023-08-01T05:42:14;97664.84;;;18.07;100.00
68169;BME280;54981;50.206;15.978;2023-08-01T05:44:44;97659.25;;;18.08;100.00
68169;BME280;54981;50.206;15.978;2023-08-01T05:47:14;97656.75;;;18.07;100.00
68169;BME280;54981;50.206;15.978;2023-08-01T05:49:45;97661.97;;;18.08;100.00
68169;BME280;54981;50.206;15.978;2023-08-01T05:52:15;97655.72;;;18.08;100.00
68169;BME280;54981;50.206;15.978;2023-08-01T05:54:45;97655.78;;;18.16;100.00
68169;BME280;54981;50.206;15.978;2023-08-01T05:57:16;97655.78;;;18.24;100.00
68169;BME280;54981;50.206;15.978;2023-08-01T05:59:46;97649.56;;;18.32;100.00
68169;BME280;54981;50.206;15.978;2023-08-01T06:02:16;97650.56;;;18.23;100.00
68169;BME280;54981;50.206;15.978;2023-08-01T06:04:47;97648.94;;;18.38;100.00
68169;BME280;54981;50.206;15.978;2023-08-01T06:07:17;97650.28;;;18.50;100.00
68169;BME280;54981;50.206;15.978;2023-08-01T06:09:53;97646.91;;;18.57;100.00
68169;BME280;54981;50.206;15.978;2023-08-01T06:12:23;97655.00;;;18.48;100.00
68169;BME280;54981;50.206;15.978;2023-08-01T06:14:54;97648.25;;;18.36;100.00
68169;BME280;54981;50.206;15.978;2023-08-01T06:17:24;97652.78;;;18.36;100.00
68169;BME280;54981;50.206;15.978;2023-08-01T06:19:54;97656.13;;;18.29;100.00
68169;BME280;54981;50.206;15.978;2023-08-01T06:22:25;97643.88;;;18.35;100.00
68169;BME280;54981;50.206;15.978;2023-08-01T06:24:55;97652.59;;;18.37;100.00
68169;BME280;54981;50.206;15.978;2023-08-01T06:27:26;97657.53;;;18.50;100.00
68169;BME280;54981;50.206;15.978;2023-08-01T06:29:56;97663.47;;;18.62;100.00
68169;BME280;54981;50.206;15.978;2023-08-01T06:32:26;97639.69;;;18.65;100.00
68169;BME280;54981;50.206;15.978;2023-08-01T06:34:57;97641.72;;;18.55;100.00
68169;BME280;54981;50.206;15.978;2023-08-01T06:37:27;97635.28;;;18.48;100.00
68169;BME280;54981;50.206;15.978;2023-08-01T06:39:58;97630.91;;;18.47;100.00
68169;BME280;54981;50.206;15.978;2023-08-01T06:42:28;97627.03;;;18.41;100.00
68169;BME280;54981;50.206;15.978;2023-08-01T06:44:58;97618.06;;;18.33;100.00
68169;BME280;54981;50.206;15.978;2023-08-01T06:47:29;97615.22;;;18.26;100.00
68169;BME280;54981;50.206;15.978;2023-08-01T06:49:59;97617.72;;;18.27;100.00
68169;BME280;54981;50.206;15.978;2023-08-01T06:52:30;97606.13;;;18.27;100.00
68169;BME280;54981;50.206;15.978;2023-08-01T06:55:00;97596.03;;;18.29;100.00
68169;BME280;54981;50.206;15.978;2023-08-01T06:57:30;97601.72;;;18.18;100.00
68169;BME280;54981;50.206;15.978;2023-08-01T07:00:01;97583.19;;;18.23;100.00
68169;BME280;54981;50.206;15.978;2023-08-01T07:02:31;97582.56;;;18.21;100.00
68169;BME280;54981;50.206;15.978;2023-08-01T07:05:02;97581.53;;;18.30;100.00
68169;BME280;54981;50.206;15.978;2023-08-01T07:07:33;97583.72;;;18.35;100.00
68169;BME280;54981;50.206;15.978;2023-08-01T07:10:03;97567.72;;;18.41;100.00
68169;BME280;54981;50.206;15.978;2023-08-01T07:12:34;97566.22;;;18.47;100.00
68169;BME280;54981;50.206;15.978;2023-08-01T07:15:04;97568.75;;;18.48;100.00
68169;BME280;54981;50.206;15.978;2023-08-01T07:17:35;97573.47;;;18.46;100.00
68169;BME280;54981;50.206;15.978;2023-08-01T07:20:05;97568.41;;;18.51;100.00
68169;BME280;54981;50.206;15.978;2023-08-01T07:22:36;97566.72;;;18.50;100.00
68169;BME280;54981;50.206;15.978;2023-08-01T07:25:06;97572.13;;;18.50;100.00
68169;BME280;54981;50.206;15.978;2023-08-01T07:27:37;97571.94;;;18.60;100.00
68169;BME280;54981;50.206;15.978;2023-08-01T07:30:08;97571.78;;;18.70;100.00
68169;BME280;54981;50.206;15.978;2023-08-01T07:32:40;97568.72;;;18.73;100.00
68169;BME280;54981;50.206;15.978;2023-08-01T07:35:12;97570.44;;;18.82;100.00
68169;BME280;54981;50.206;15.978;2023-08-01T07:37:43;97568.44;;;18.76;100.00
68169;BME280;54981;50.206;15.978;2023-08-01T07:40:13;97562.03;;;18.69;100.00
68169;BME280;54981;50.206;15.978;2023-08-01T07:42:44;97563.72;;;18.62;100.00
68169;BME280;54981;50.206;15.978;2023-08-01T07:45:14;97556.44;;;18.70;100.00
68169;BME280;54981;50.206;15.978;2023-08-01T07:47:44;97548.88;;;18.82;100.00
68169;BME280;54981;50.206;15.978;2023-08-01T07:50:15;97551.56;;;18.99;100.00
68169;BME280;54981;50.206;15.978;2023-08-01T07:52:45;97549.84;;;18.98;100.00
68169;BME280;54981;50.206;15.978;2023-08-01T07:55:15;97550.34;;;19.09;100.00
68169;BME280;54981;50.206;15.978;2023-08-01T07:57:47;97550.53;;;19.00;100.00
68169;BME280;54981;50.206;15.978;2023-08-01T08:00:18;97548.16;;;19.05;100.00
68169;BME280;54981;50.206;15.978;2023-08-01T08:02:48;97545.09;;;19.16;100.00
68169;BME280;54981;50.206;15.978;2023-08-01T08:05:19;97549.13;;;19.20;100.00
68169;BME280;54981;50.206;15.978;2023-08-01T08:07:49;97552.81;;;19.27;100.00
68169;BME280;54981;50.206;15.978;2023-08-01T08:10:19;97547.91;;;19.31;100.00
68169;BME280;54981;50.206;15.978;2023-08-01T08:12:50;97536.28;;;19.30;100.00
68169;BME280;54981;50.206;15.978;2023-08-01T08:15:20;97544.69;;;19.35;100.00
68169;BME280;54981;50.206;15.978;2023-08-01T08:17:50;97539.28;;;19.35;100.00
68169;BME280;54981;50.206;15.978;2023-08-01T08:20:21;97531.19;;;19.44;100.00
68169;BME280;54981;50.206;15.978;2023-08-01T08:22:51;97523.78;;;19.37;100.00
68169;BME280;54981;50.206;15.978;2023-08-01T08:25:21;97523.41;;;19.41;100.00
68169;BME280;54981;50.206;15.978;2023-08-01T08:27:52;97528.50;;;19.35;100.00
68169;BME280;54981;50.206;15.978;2023-08-01T08:30:22;97519.56;;;19.35;100.00
68169;BME280;54981;50.206;15.978;2023-08-01T08:32:52;97533.25;;;19.25;100.00
68169;BME280;54981;50.206;15.978;2023-08-01T08:35:23;97535.44;;;19.30;100.00
68169;BME280;54981;50.206;15.978;2023-08-01T08:37:53;97526.72;;;19.20;100.00
68169;BME280;54981;50.206;15.978;2023-08-01T08:40:23;97524.22;;;19.10;100.00
68169;BME280;54981;50.206;15.978;2023-08-01T08:42:54;97527.56;;;19.12;100.00
68169;BME280;54981;50.206;15.978;2023-08-01T08:45:28;97527.72;;;19.19;100.00
68169;BME280;54981;50.206;15.978;2023-08-01T08:48:02;97524.22;;;19.10;100.00
68169;BME280;54981;50.206;15.978;2023-08-01T08:50:33;97525.88;;;19.11;100.00
68169;BME280;54981;50.206;15.978;2023-08-01T08:53:04;97517.97;;;19.09;100.00
68169;BME280;54981;50.206;15.978;2023-08-01T08:55:42;97519.16;;;19.07;100.00
68169;BME280;54981;50.206;15.978;2023-08-01T08:58:12;97522.81;;;19.22;100.00
68169;BME280;54981;50.206;15.978;2023-08-01T09:00:43;97508.16;;;19.25;100.00
68169;BME280;54981;50.206;15.978;2023-08-01T09:03:14;97504.72;;;19.31;100.00
68169;BME280;54981;50.206;15.978;2023-08-01T09:05:48;97514.47;;;19.40;100.00
68169;BME280;54981;50.206;15.978;2023-08-01T09:08:21;97503.69;;;19.40;100.00
68169;BME280;54981;50.206;15.978;2023-08-01T09:10:51;97499.63;;;19.36;100.00
68169;BME280;54981;50.206;15.978;2023-08-01T09:13:22;97506.06;;;19.35;100.00
68169;BME280;54981;50.206;15.978;2023-08-01T09:15:52;97502.91;;;19.23;100.00
68169;BME280;54981;50.206;15.978;2023-08-01T09:18:23;97501.19;;;19.30;100.00
68169;BME280;54981;50.206;15.978;2023-08-01T09:20:53;97502.44;;;19.20;100.00
68169;BME280;54981;50.206;15.978;2023-08-01T09:23:24;97496.88;;;19.05;100.00
68169;BME280;54981;50.206;15.978;2023-08-01T09:25:54;97504.84;;;18.98;100.00
68169;BME280;54981;50.206;15.978;2023-08-01T09:28:26;97503.66;;;19.01;100.00
68169;BME280;54981;50.206;15.978;2023-08-01T09:30:57;97498.13;;;18.94;100.00
68169;BME280;54981;50.206;15.978;2023-08-01T09:33:37;97500.50;;;18.89;100.00
68169;BME280;54981;50.206;15.978;2023-08-01T09:36:09;97503.03;;;18.82;100.00
68169;BME280;54981;50.206;15.978;2023-08-01T09:38:39;97503.34;;;18.87;100.00
68169;BME280;54981;50.206;15.978;2023-08-01T09:41:19;97505.69;;;18.90;100.00
68169;BME280;54981;50.206;15.978;2023-08-01T09:43:49;97502.69;;;18.93;100.00
68169;BME280;54981;50.206;15.978;2023-08-01T09:46:20;97512.13;;;18.89;100.00
68169;BME280;54981;50.206;15.978;2023-08-01T09:48:50;97502.84;;;19.00;100.00
68169;BME280;54981;50.206;15.978;2023-08-01T09:51:21;97508.22;;;18.92;100.00
68169;BME280;54981;50.206;15.978;2023-08-01T09:53:56;97511.75;;;18.92;100.00
68169;BME280;54981;50.206;15.978;2023-08-01T09:56:27;97503.00;;;18.90;100.00
68169;BME280;54981;50.206;15.978;2023-08-01T09:58:59;97502.34;;;18.88;100.00
68169;BME280;54981;50.206;15.978;2023-08-01T10:01:31;97512.16;;;18.81;100.00
68169;BME280;54981;50.206;15.978;2023-08-01T10:04:04;97513.81;;;18.74;100.00
68169;BME280;54981;50.206;15.978;2023-08-01T10:06:38;97509.97;;;18.77;100.00
68169;BME280;54981;50.206;15.978;2023-08-01T10:09:10;97519.84;;;19.01;100.00
68169;BME280;54981;50.206;15.978;2023-08-01T10:11:42;97508.47;;;19.22;100.00
68169;BME280;54981;50.206;15.978;2023-08-01T10:14:12;97514.56;;;19.55;100.00
68169;BME280;54981;50.206;15.978;2023-08-01T10:16:44;97516.56;;;19.69;100.00
68169;BME280;54981;50.206;15.978;2023-08-01T10:19:15;97518.09;;;19.95;100.00
68169;BME280;54981;50.206;15.978;2023-08-01T10:21:47;97506.34;;;20.11;100.00
68169;BME280;54981;50.206;15.978;2023-08-01T10:24:19;97503.59;;;20.19;100.00
68169;BME280;54981;50.206;15.978;2023-08-01T10:26:49;97505.38;;;20.27;100.00
68169;BME280;54981;50.206;15.978;2023-08-01T10:29:20;97507.56;;;20.46;100.00
68169;BME280;54981;50.206;15.978;2023-08-01T10:31:54;97510.94;;;20.48;100.00
68169;BME280;54981;50.206;15.978;2023-08-01T10:34:24;97496.22;;;20.74;100.00
68169;BME280;54981;50.206;15.978;2023-08-01T10:36:56;97508.47;;;21.29;100.00
68169;BME280;54981;50.206;15.978;2023-08-01T10:39:28;97490.34;;;21.81;100.00
68169;BME280;54981;50.206;15.978;2023-08-01T10:42:04;97488.50;;;22.03;100.00
68169;BME280;54981;50.206;15.978;2023-08-01T10:44:45;97486.88;;;22.23;100.00
68169;BME280;54981;50.206;15.978;2023-08-01T10:47:25;97489.91;;;22.35;100.00
68169;BME280;54981;50.206;15.978;2023-08-01T10:49:56;97484.81;;;22.25;100.00
68169;BME280;54981;50.206;15.978;2023-08-01T10:52:27;97477.63;;;22.18;100.00
68169;BME280;54981;50.206;15.978;2023-08-01T10:55:00;97481.94;;;22.12;100.00
68169;BME280;54981;50.206;15.978;2023-08-01T10:57:31;97474.56;;;21.84;100.00
68169;BME280;54981;50.206;15.978;2023-08-01T11:00:02;97469.84;;;21.93;100.00
68169;BME280;54981;50.206;15.978;2023-08-01T11:02:39;97475.94;;;22.17;100.00
68169;BME280;54981;50.206;15.978;2023-08-01T11:05:11;97457.47;;;22.27;100.00
68169;BME280;54981;50.206;15.978;2023-08-01T11:07:41;97457.22;;;22.22;100.00
68169;BME280;54981;50.206;15.978;2023-08-01T11:10:13;97451.22;;;22.26;100.00
68169;BME280;54981;50.206;15.978;2023-08-01T11:12:44;97449.28;;;22.42;100.00
68169;BME280;54981;50.206;15.978;2023-08-01T11:15:15;97435.97;;;22.47;100.00
68169;BME280;54981;50.206;15.978;2023-08-01T11:17:53;97437.34;;;22.36;100.00
68169;BME280;54981;50.206;15.978;2023-08-01T11:20:25;97425.19;;;22.60;100.00
68169;BME280;54981;50.206;15.978;2023-08-01T11:22:58;97422.19;;;22.76;100.00
68169;BME280;54981;50.206;15.978;2023-08-01T11:25:35;97408.56;;;22.98;100.00
68169;BME280;54981;50.206;15.978;2023-08-01T11:28:11;97398.63;;;23.18;100.00
68169;BME280;54981;50.206;15.978;2023-08-01T11:30:42;97400.75;;;23.30;100.00
68169;BME280;54981;50.206;15.978;2023-08-01T11:33:18;97390.41;;;23.53;100.00
68169;BME280;54981;50.206;15.978;2023-08-01T11:35:53;97387.69;;;23.53;100.00
68169;BME280;54981;50.206;15.978;2023-08-01T11:38:26;97383.78;;;23.76;100.00
68169;BME280;54981;50.206;15.978;2023-08-01T11:40:57;97376.28;;;23.85;100.00
68169;BME280;54981;50.206;15.978;2023-08-01T11:43:38;97375.44;;;23.97;100.00
68169;BME280;54981;50.206;15.978;2023-08-01T11:46:09;97390.47;;;23.80;100.00
68169;BME280;54981;50.206;15.978;2023-08-01T11:48:44;97389.59;;;23.73;100.00
68169;BME280;54981;50.206;15.978;2023-08-01T11:51:16;97389.34;;;23.54;100.00
68169;BME280;54981;50.206;15.978;2023-08-01T11:53:58;97370.31;;;23.48;100.00
68169;BME280;54981;50.206;15.978;2023-08-01T11:56:29;97370.47;;;23.33;100.00
68169;BME280;54981;50.206;15.978;2023-08-01T11:58:59;97366.91;;;23.26;100.00
68169;BME280;54981;50.206;15.978;2023-08-01T12:01:30;97359.94;;;23.03;100.00
68169;BME280;54981;50.206;15.978;2023-08-01T12:04:00;97367.91;;;22.76;100.00
68169;BME280;54981;50.206;15.978;2023-08-01T12:06:32;97369.34;;;22.66;100.00
68169;BME280;54981;50.206;15.978;2023-08-01T12:09:10;97359.31;;;22.66;100.00
68169;BME280;54981;50.206;15.978;2023-08-01T12:11:41;97361.34;;;22.29;100.00
68169;BME280;54981;50.206;15.978;2023-08-01T12:14:14;97369.38;;;22.16;100.00
68169;BME280;54981;50.206;15.978;2023-08-01T12:16:46;97373.09;;;22.15;100.00
68169;BME280;54981;50.206;15.978;2023-08-01T12:19:18;97373.72;;;22.10;100.00
68169;BME280;54981;50.206;15.978;2023-08-01T12:21:49;97366.53;;;22.03;100.00
68169;BME280;54981;50.206;15.978;2023-08-01T12:24:20;97366.94;;;22.21;100.00
68169;BME280;54981;50.206;15.978;2023-08-01T12:26:50;97364.47;;;22.26;100.00
68169;BME280;54981;50.206;15.978;2023-08-01T12:29:20;97358.19;;;22.54;100.00
68169;BME280;54981;50.206;15.978;2023-08-01T12:31:51;97363.78;;;22.81;100.00
68169;BME280;54981;50.206;15.978;2023-08-01T12:34:21;97361.84;;;23.09;100.00
68169;BME280;54981;50.206;15.978;2023-08-01T12:36:52;97362.78;;;23.50;100.00
68169;BME280;54981;50.206;15.978;2023-08-01T12:39:22;97345.28;;;23.66;100.00
68169;BME280;54981;50.206;15.978;2023-08-01T12:41:54;97332.72;;;23.51;100.00
68169;BME280;54981;50.206;15.978;2023-08-01T12:44:24;97327.78;;;23.81;100.00
68169;BME280;54981;50.206;15.978;2023-08-01T12:46:55;97311.66;;;24.13;100.00
68169;BME280;54981;50.206;15.978;2023-08-01T12:49:25;97314.72;;;24.43;100.00
68169;BME280;54981;50.206;15.978;2023-08-01T12:51:55;97322.94;;;24.30;100.00
68169;BME280;54981;50.206;15.978;2023-08-01T12:54:27;97322.88;;;24.43;100.00
68169;BME280;54981;50.206;15.978;2023-08-01T12:56:58;97310.78;;;24.39;100.00
68169;BME280;54981;50.206;15.978;2023-08-01T12:59:28;97314.91;;;24.69;100.00